Time;durP1;ratioP1;P1;durP2;ratioP2;P2;SDS_P1;SDS_P2;PMS_P1;PMS_P2;Temp;Humidity;BMP_temperature;BMP_pressure;BME280_temperature;BME280_humidity;BME280_pressure;Samples;Min_cycle;Max_cycle;Signal;HPM_P1;HPM_P2
2022/04/22 00:01:16;;;;;;;9.25;5.28;;;;;;;9.59;84.68;94473.47;5031067;28;20216;-77
2022/04/22 00:03:43;;;;;;;2.55;1.98;;;;;;;9.59;84.93;94481.59;5018081;28;20201;-77
2022/04/22 00:06:10;;;;;;;3.65;2.42;;;;;;;9.67;84.27;94477.28;5031763;28;20224;-77
2022/04/22 00:08:37;;;;;;;1.55;1.45;;;;;;;9.63;84.23;94479.84;5031702;28;20243;-78
2022/04/22 00:13:49;;;;;;;2.20;1.25;;;;;;;9.58;83.80;94478.09;5031519;28;20718;-77
2022/04/22 00:16:17;;;;;;;2.92;1.98;;;;;;;9.64;84.07;94465.19;5030952;28;20639;-77
2022/04/22 00:18:44;;;;;;;2.40;1.85;;;;;;;9.53;84.77;94470.19;5031698;28;20200;-78
2022/04/22 00:21:11;;;;;;;1.65;1.55;;;;;;;9.51;85.13;94458.09;5031114;28;20212;-77
2022/04/22 00:23:38;;;;;;;2.15;1.45;;;;;;;9.47;85.09;94454.44;5037589;28;20208;-78
2022/04/22 00:26:05;;;;;;;2.58;1.15;;;;;;;9.48;85.00;94445.22;5037380;28;20262;-77
2022/04/22 00:28:32;;;;;;;1.67;1.10;;;;;;;9.37;85.01;94444.78;5031112;28;20247;-78
2022/04/22 00:30:59;;;;;;;2.20;1.58;;;;;;;9.43;84.71;94437.31;5030858;28;20671;-77
2022/04/22 00:33:27;;;;;;;3.80;1.88;;;;;;;9.49;85.06;94441.41;5030282;28;20224;-77
2022/04/22 00:35:55;;;;;;;1.83;1.58;;;;;;;9.42;85.80;94446.53;5030801;28;20204;-77
2022/04/22 00:38:21;;;;;;;3.50;1.92;;;;;;;9.42;86.67;94447.31;5030557;28;20223;-77
2022/04/22 00:40:48;;;;;;;2.33;1.60;;;;;;;9.39;86.90;94442.56;5031077;28;20219;-77
2022/04/22 00:43:17;;;;;;;11.48;2.42;;;;;;;9.37;86.58;94444.00;5030987;28;20239;-78
2022/04/22 00:45:44;;;;;;;2.28;2.00;;;;;;;9.32;86.78;94452.28;5030953;28;20211;-78
2022/04/22 00:48:11;;;;;;;1.83;1.55;;;;;;;9.38;85.96;94442.88;5029979;28;20232;-77
2022/04/22 00:50:40;;;;;;;1.60;1.50;;;;;;;9.27;86.77;94439.75;5030732;28;20196;-77
2022/04/22 00:53:08;;;;;;;2.22;1.35;;;;;;;9.20;86.77;94442.16;5030757;28;20562;-78
2022/04/22 00:55:37;;;;;;;2.20;1.98;;;;;;;9.19;87.05;94433.25;5031192;28;20212;-79
2022/04/22 00:58:05;;;;;;;3.42;2.80;;;;;;;9.12;86.16;94430.25;5030691;28;20215;-78
2022/04/22 01:00:32;;;;;;;4.05;2.63;;;;;;;9.06;86.74;94415.31;5030738;28;20746;-79
2022/04/22 01:02:59;;;;;;;1.33;1.23;;;;;;;9.23;85.27;94417.97;5020527;28;20213;-77
2022/04/22 01:10:58;;;;;;;5.88;3.20;;;;;;;9.10;86.16;94416.28;5019688;28;20192;-77
2022/04/22 01:13:25;;;;;;;5.32;1.77;;;;;;;9.12;85.83;94415.94;5030742;28;20211;-79
2022/04/22 01:15:52;;;;;;;1.27;1.17;;;;;;;9.06;85.76;94396.41;5031036;28;20258;-78
2022/04/22 01:18:19;;;;;;;1.73;1.33;;;;;;;9.18;85.73;94393.03;5030082;28;20227;-77
2022/04/22 01:20:46;;;;;;;4.60;2.00;;;;;;;9.14;85.64;94376.69;5030757;28;20200;-77
2022/04/22 01:23:15;;;;;;;4.05;1.60;;;;;;;9.08;85.67;94382.59;5030466;28;20208;-77
2022/04/22 01:25:42;;;;;;;1.48;1.38;;;;;;;9.01;86.27;94366.09;5039230;28;20204;-77
2022/04/22 01:28:10;;;;;;;3.92;1.92;;;;;;;8.92;86.65;94358.00;5030856;28;20207;-77
2022/04/22 01:30:36;;;;;;;1.48;1.38;;;;;;;8.93;86.83;94332.56;5031102;28;20204;-76
2022/04/22 01:33:04;;;;;;;1.38;1.27;;;;;;;8.93;87.16;94337.97;5030503;28;20231;-77
2022/04/22 01:35:30;;;;;;;3.90;2.45;;;;;;;8.94;87.20;94323.38;5030030;28;20215;-77
2022/04/22 01:37:57;;;;;;;1.45;1.05;;;;;;;8.93;87.38;94321.78;5030805;28;20196;-79
2022/04/22 01:40:26;;;;;;;2.53;1.35;;;;;;;8.94;86.80;94325.28;5030888;28;20212;-78
2022/04/22 01:42:53;;;;;;;1.40;0.90;;;;;;;8.98;86.94;94324.31;5030471;28;20228;-76
2022/04/22 01:45:20;;;;;;;1.08;1.02;;;;;;;9.00;86.57;94321.28;5030971;28;20222;-78
2022/04/22 01:47:47;;;;;;;2.20;1.70;;;;;;;9.01;86.62;94334.47;5030474;28;20205;-77
2022/04/22 01:50:14;;;;;;;0.95;0.95;;;;;;;9.01;86.83;94331.78;5030542;28;20622;-77
2022/04/22 01:52:41;;;;;;;4.25;1.42;;;;;;;9.02;86.77;94341.44;5030372;28;20204;-78
2022/04/22 01:55:09;;;;;;;1.52;1.23;;;;;;;8.93;87.22;94343.38;5030784;28;20262;-78
2022/04/22 01:57:38;;;;;;;4.18;0.95;;;;;;;9.01;87.12;94355.28;5030486;28;20708;-79
2022/04/22 02:00:07;;;;;;;3.92;1.40;;;;;;;9.08;86.77;94342.84;5030859;28;20217;-76
2022/04/22 02:02:33;;;;;;;9.65;3.80;;;;;;;9.03;86.68;94347.63;5023804;28;20209;-77
2022/04/22 02:05:00;;;;;;;2.25;1.20;;;;;;;8.99;86.41;94368.31;5023338;28;20201;-77
2022/04/22 02:07:27;;;;;;;1.30;0.70;;;;;;;9.00;86.59;94386.91;5017039;28;20224;-78
2022/04/22 02:09:54;;;;;;;7.38;4.47;;;;;;;8.82;87.74;94391.56;5030027;28;20235;-77
2022/04/22 02:12:21;;;;;;;8.55;5.47;;;;;;;8.82;87.94;94390.78;5030441;28;20208;-77
2022/04/22 02:14:49;;;;;;;9.32;5.25;;;;;;;8.76;88.40;94405.53;5030440;28;20223;-77
2022/04/22 02:17:18;;;;;;;8.57;5.55;;;;;;;8.62;89.24;94413.03;5033941;28;20548;-77
2022/04/22 02:19:44;;;;;;;2.70;2.40;;;;;;;8.61;89.37;94422.28;5034681;28;20671;-78
2022/04/22 02:22:11;;;;;;;1.73;1.58;;;;;;;8.57;89.67;94418.63;5045142;28;20211;-78
2022/04/22 02:24:38;;;;;;;1.55;1.45;;;;;;;8.68;89.63;94411.78;5042280;28;20196;-78
2022/04/22 02:29:52;;;;;;;3.22;2.40;;;;;;;8.51;90.18;94399.88;5033465;28;20219;-78
2022/04/22 02:32:19;;;;;;;4.45;2.85;;;;;;;8.48;90.48;94384.31;5033468;28;20204;-78
2022/04/22 02:34:45;;;;;;;2.47;2.03;;;;;;;8.48;90.53;94376.22;5033253;28;20220;-77
2022/04/22 02:37:13;;;;;;;3.33;2.35;;;;;;;8.53;90.38;94373.38;5033179;28;20623;-78
2022/04/22 02:39:40;;;;;;;2.58;1.73;;;;;;;8.60;90.36;94372.09;5033498;28;20568;-76
2022/04/22 02:47:37;;;;;;;2.70;1.77;;;;;;;8.57;90.11;94357.31;5033179;28;20203;-77
2022/04/22 02:50:05;;;;;;;6.13;3.42;;;;;;;8.64;89.64;94373.00;5033221;28;20240;-75
2022/04/22 02:52:31;;;;;;;9.20;5.40;;;;;;;8.66;89.93;94376.19;5032577;28;20334;-75
2022/04/22 02:54:58;;;;;;;3.70;1.80;;;;;;;8.58;90.10;94366.22;5032896;28;20219;-76
2022/04/22 02:57:25;;;;;;;0.95;0.95;;;;;;;8.55;89.84;94370.34;5032731;28;20208;-75
2022/04/22 02:59:54;;;;;;;1.52;1.20;;;;;;;8.63;89.12;94364.13;5032532;28;20204;-77
2022/04/22 03:02:20;;;;;;;1.75;1.27;;;;;;;8.63;89.02;94369.53;5032809;28;20209;-74
2022/04/22 03:04:48;;;;;;;1.35;1.08;;;;;;;8.63;88.55;94374.13;5033196;28;20304;-76
2022/04/22 03:07:15;;;;;;;5.03;2.30;;;;;;;8.55;88.63;94349.53;5032452;28;20316;-77
2022/04/22 03:09:42;;;;;;;1.63;1.35;;;;;;;8.62;88.74;94364.44;5031749;28;20275;-75
2022/04/22 03:12:10;;;;;;;1.00;0.93;;;;;;;8.74;88.69;94370.00;5032651;28;20279;-76
2022/04/22 03:14:38;;;;;;;4.25;2.38;;;;;;;8.77;88.52;94361.22;5032756;28;20660;-77
2022/04/22 03:17:06;;;;;;;3.42;2.15;;;;;;;8.73;88.58;94355.69;5032924;28;20660;-77
2022/04/22 03:19:34;;;;;;;2.03;1.58;;;;;;;8.68;88.24;94363.16;5032586;28;20258;-76
2022/04/22 03:22:01;;;;;;;2.85;1.75;;;;;;;8.72;88.37;94374.91;5019550;28;20196;-75
2022/04/22 03:24:28;;;;;;;2.15;1.67;;;;;;;8.66;89.05;94371.59;5040968;28;20253;-76
2022/04/22 03:26:54;;;;;;;4.55;2.15;;;;;;;8.60;89.24;94386.38;5019218;28;20208;-75
2022/04/22 03:29:21;;;;;;;2.28;1.23;;;;;;;8.59;89.33;94397.50;5032572;28;20246;-76
2022/04/22 03:31:48;;;;;;;2.38;1.25;;;;;;;8.60;89.53;94389.09;5019053;28;20258;-78
2022/04/22 03:34:16;;;;;;;5.50;3.35;;;;;;;8.66;89.19;94384.28;5032315;28;20216;-76
2022/04/22 03:36:43;;;;;;;1.70;1.60;;;;;;;8.57;89.43;94395.13;5018759;28;20204;-76
2022/04/22 03:39:10;;;;;;;3.30;1.48;;;;;;;8.58;89.52;94385.13;5031927;28;20215;-77
2022/04/22 03:41:39;;;;;;;2.85;1.85;;;;;;;8.54;89.87;94399.25;5019249;28;20207;-76
2022/04/22 03:44:06;;;;;;;3.03;1.65;;;;;;;8.72;90.01;94396.53;5031733;28;20244;-77
2022/04/22 03:46:34;;;;;;;2.88;1.98;;;;;;;8.71;89.85;94405.75;5032174;28;20762;-76
2022/04/22 03:49:04;;;;;;;1.90;1.30;;;;;;;8.61;90.16;94417.66;5031520;28;20208;-76
2022/04/22 03:51:32;;;;;;;1.35;1.25;;;;;;;8.62;90.27;94416.53;5031990;28;20236;-77
2022/04/22 03:53:59;;;;;;;8.32;5.70;;;;;;;8.75;89.77;94412.06;5031428;28;20208;-76
2022/04/22 03:59:10;;;;;;;3.13;2.03;;;;;;;8.55;89.97;94414.34;5031990;28;20258;-77
2022/04/22 04:01:37;;;;;;;5.35;2.15;;;;;;;8.52;90.40;94420.38;5032132;28;20211;-78
2022/04/22 04:04:04;;;;;;;1.70;1.33;;;;;;;8.57;90.91;94405.13;5018493;28;20323;-77
2022/04/22 04:06:32;;;;;;;13.60;3.80;;;;;;;8.54;90.94;94401.94;5031605;28;20236;-77
2022/04/22 04:17:14;;;;;;;3.83;2.13;;;;;;;8.51;91.53;94380.97;5019013;28;20268;-78
2022/04/22 04:25:11;;;;;;;1.77;1.65;;;;;;;8.84;89.90;94393.94;5039041;28;20323;-78
2022/04/22 04:27:39;;;;;;;7.25;3.42;;;;;;;8.84;89.09;94385.84;5031982;28;20203;-77
2022/04/22 04:30:07;;;;;;;2.58;2.20;;;;;;;8.71;89.30;94378.72;5030931;28;20323;-77
2022/04/22 04:32:35;;;;;;;3.78;2.40;;;;;;;8.70;88.52;94377.16;5031650;28;20320;-77
2022/04/22 04:35:01;;;;;;;1.85;1.02;;;;;;;8.69;88.87;94381.75;5018121;28;20258;-77
2022/04/22 04:37:30;;;;;;;4.18;3.00;;;;;;;8.60;88.27;94377.50;5030087;28;20211;-78
2022/04/22 04:39:57;;;;;;;2.05;1.58;;;;;;;8.62;88.39;94380.63;5030187;28;20208;-78
2022/04/22 04:42:25;;;;;;;4.30;2.42;;;;;;;8.69;88.84;94372.84;5030736;28;20205;-79
2022/04/22 04:44:52;;;;;;;1.73;1.63;;;;;;;8.76;88.42;94370.44;5030833;28;20673;-79
2022/04/22 04:47:19;;;;;;;3.72;2.85;;;;;;;8.67;88.00;94356.19;5030804;28;20200;-77
2022/04/22 04:49:46;;;;;;;2.55;1.98;;;;;;;8.83;87.81;94376.16;5030562;28;20595;-77
2022/04/22 04:52:13;;;;;;;3.90;3.10;;;;;;;8.84;88.00;94373.13;5030727;28;20200;-75
2022/04/22 04:54:42;;;;;;;2.45;2.10;;;;;;;8.92;87.11;94360.69;5030369;28;20239;-77
2022/04/22 04:57:09;;;;;;;3.60;2.45;;;;;;;8.85;87.73;94368.53;5030644;28;20207;-79
2022/04/22 04:59:36;;;;;;;5.07;2.58;;;;;;;8.86;86.50;94365.50;5031051;28;20254;-80
2022/04/22 05:02:03;;;;;;;3.30;1.95;;;;;;;8.94;85.32;94371.97;5028715;28;20200;-78
2022/04/22 05:04:30;;;;;;;8.38;1.58;;;;;;;9.09;84.27;94357.94;5019536;28;20239;-79
2022/04/22 05:06:57;;;;;;;3.65;2.47;;;;;;;9.23;83.14;94358.53;5030458;28;20234;-74
2022/04/22 05:09:24;;;;;;;2.92;2.15;;;;;;;9.27;82.34;94343.25;5030326;28;20649;-72
2022/04/22 05:11:54;;;;;;;4.22;1.92;;;;;;;9.27;82.14;94337.84;5031343;28;20211;-79
2022/04/22 05:14:21;;;;;;;1.48;1.20;;;;;;;9.30;81.00;94313.97;5030726;28;20215;-71
2022/04/22 05:16:47;;;;;;;0.98;0.98;;;;;;;9.33;81.00;94326.81;5030241;28;20197;-76
2022/04/22 05:19:14;;;;;;;2.67;2.13;;;;;;;9.32;80.00;94323.31;5030207;28;20215;-74
2022/04/22 05:21:41;;;;;;;1.58;1.38;;;;;;;9.35;80.82;94322.69;5029248;28;20192;-76
2022/04/22 05:24:08;;;;;;;2.92;2.20;;;;;;;9.24;81.40;94327.69;5030143;28;20291;-77
2022/04/22 05:26:35;;;;;;;1.27;1.13;;;;;;;9.19;81.44;94308.94;5029802;28;20274;-78
2022/04/22 05:29:04;;;;;;;1.15;1.13;;;;;;;9.15;81.39;94302.63;5029572;28;20270;-76
2022/04/22 05:34:15;;;;;;;2.35;1.33;;;;;;;9.09;82.27;94255.28;5027015;28;20311;-77
2022/04/22 05:36:41;;;;;;;0.70;0.68;;;;;;;9.05;82.87;94243.53;5029594;28;20193;-71
2022/04/22 05:39:10;;;;;;;1.90;1.67;;;;;;;9.01;83.45;94237.22;5028170;28;20211;-79
2022/04/22 05:41:37;;;;;;;2.45;2.08;;;;;;;9.00;83.18;94222.13;5027826;28;21070;-76
2022/04/22 05:44:06;;;;;;;1.55;1.40;;;;;;;9.01;83.15;94221.00;5028468;28;20671;-76
2022/04/22 05:46:33;;;;;;;1.02;0.95;;;;;;;9.14;82.70;94211.88;5029227;28;20188;-78
2022/04/22 05:48:59;;;;;;;7.18;3.25;;;;;;;9.27;82.21;94202.72;5031373;28;20230;-77
2022/04/22 05:51:26;;;;;;;1.45;1.30;;;;;;;9.39;80.94;94193.06;5034206;28;20235;-75
2022/04/22 05:53:53;;;;;;;1.45;1.08;;;;;;;9.48;80.74;94186.47;5034332;28;20228;-73
2022/04/22 05:56:20;;;;;;;2.05;1.40;;;;;;;9.60;80.08;94193.84;5034316;28;20207;-76
2022/04/22 05:58:47;;;;;;;2.85;1.60;;;;;;;9.69;79.89;94180.25;5033813;28;20200;-76
2022/04/22 06:01:15;;;;;;;1.13;1.02;;;;;;;9.76;79.54;94186.69;5033902;28;20208;-74
2022/04/22 06:03:42;;;;;;;1.75;1.38;;;;;;;9.86;79.15;94199.78;5033927;28;20742;-77
2022/04/22 06:06:09;;;;;;;3.40;1.80;;;;;;;9.93;78.08;94174.91;5033410;28;20224;-74
2022/04/22 06:11:20;;;;;;;2.35;1.83;;;;;;;9.99;77.12;94179.75;5031613;28;20273;-73
2022/04/22 06:13:47;;;;;;;2.90;2.05;;;;;;;10.00;77.02;94177.84;5032582;28;20208;-77
2022/04/22 06:16:16;;;;;;;2.80;2.03;;;;;;;10.13;77.69;94178.66;5031999;28;20203;-76
2022/04/22 06:18:43;;;;;;;2.30;1.23;;;;;;;10.21;77.04;94161.59;5031831;28;20214;-77
2022/04/22 06:21:10;;;;;;;3.15;0.93;;;;;;;10.23;76.99;94167.47;5033194;28;20254;-71
2022/04/22 06:23:36;;;;;;;1.48;1.02;;;;;;;10.20;76.78;94165.41;5031304;28;20652;-76
2022/04/22 06:26:03;;;;;;;2.65;1.83;;;;;;;10.28;76.88;94165.31;5024491;28;20205;-74
2022/04/22 06:28:30;;;;;;;3.13;1.98;;;;;;;10.53;76.67;94154.50;5035872;28;20226;-77
2022/04/22 06:30:57;;;;;;;2.28;1.52;;;;;;;10.80;75.64;94147.59;5031498;28;20227;-79
2022/04/22 06:33:26;;;;;;;0.88;0.77;;;;;;;11.19;73.61;94160.44;5032272;28;20192;-76
2022/04/22 06:35:53;;;;;;;0.88;0.88;;;;;;;11.32;73.21;94164.69;5032306;28;20197;-76
2022/04/22 06:38:21;;;;;;;2.00;1.45;;;;;;;11.26;73.58;94155.19;5031935;28;20199;-71
2022/04/22 06:46:18;;;;;;;1.08;0.98;;;;;;;11.14;73.51;94152.53;5031147;28;20196;-76
2022/04/22 06:48:47;;;;;;;1.95;1.42;;;;;;;11.45;72.46;94151.09;5031799;28;20211;-77
2022/04/22 06:51:17;;;;;;;3.83;1.75;;;;;;;11.94;70.93;94155.19;5031495;28;20239;-74
2022/04/22 06:53:44;;;;;;;1.67;1.58;;;;;;;12.54;70.08;94164.09;5031893;28;20188;-75
2022/04/22 06:56:13;;;;;;;3.70;1.65;;;;;;;12.81;68.80;94160.47;5031670;28;20208;-78
2022/04/22 06:58:41;;;;;;;6.35;4.07;;;;;;;13.04;67.47;94154.38;5032971;28;20215;-76
2022/04/22 07:01:08;;;;;;;6.43;4.03;;;;;;;14.19;65.75;94140.81;5031595;28;20238;-77
2022/04/22 07:03:35;;;;;;;7.95;4.78;;;;;;;14.43;63.70;94136.19;5019394;28;20232;-76
2022/04/22 07:06:04;;;;;;;7.25;4.32;;;;;;;14.45;63.30;94123.00;5032458;28;20200;-73
2022/04/22 07:08:31;;;;;;;7.22;4.63;;;;;;;14.69;62.83;94128.06;5032761;28;20788;-77
2022/04/22 07:11:03;;;;;;;5.60;4.00;;;;;;;14.35;63.31;94124.34;5032296;28;20232;-75
2022/04/22 07:13:30;;;;;;;5.20;3.80;;;;;;;14.36;61.72;94119.66;5031850;28;20200;-75
2022/04/22 07:15:59;;;;;;;4.32;3.58;;;;;;;14.05;63.04;94137.84;5032249;28;20270;-76
2022/04/22 07:18:27;;;;;;;6.50;3.42;;;;;;;13.25;64.90;94129.63;5031816;28;20246;-73
2022/04/22 07:20:54;;;;;;;8.45;4.82;;;;;;;13.28;65.17;94145.22;5031715;28;20683;-77
2022/04/22 07:23:23;;;;;;;5.28;3.88;;;;;;;14.05;63.31;94142.50;5028542;28;20589;-74
2022/04/22 07:25:50;;;;;;;5.43;3.35;;;;;;;14.03;62.37;94145.56;5030360;28;20228;-75
2022/04/22 07:28:19;;;;;;;5.63;3.40;;;;;;;13.60;63.51;94135.00;5030666;28;20215;-75
2022/04/22 07:30:50;;;;;;;6.25;3.63;;;;;;;13.26;65.00;94151.00;5030698;28;20778;-74
2022/04/22 07:33:17;;;;;;;7.25;4.22;;;;;;;12.92;65.51;94146.34;5030927;28;20197;-74
2022/04/22 07:35:44;;;;;;;6.60;3.75;;;;;;;12.81;66.20;94143.38;5028649;28;20201;-74
2022/04/22 07:38:12;;;;;;;6.35;3.35;;;;;;;12.92;65.55;94141.69;5031309;28;20209;-75
2022/04/22 07:40:43;;;;;;;4.72;3.03;;;;;;;13.08;65.50;94136.22;5030508;28;20200;-75
2022/04/22 07:48:55;;;;;;;7.25;3.95;;;;;;;13.13;65.45;94130.50;4967011;28;20969;-76
2022/04/22 07:51:24;;;;;;;2.90;2.42;;;;;;;13.64;63.42;94111.38;5003833;28;20235;-74
2022/04/22 07:53:51;;;;;;;4.90;3.30;;;;;;;13.88;62.35;94132.84;5031007;28;20246;-77
2022/04/22 07:56:19;;;;;;;4.80;2.95;;;;;;;13.98;62.91;94132.25;5031553;28;20200;-73
2022/04/22 07:58:46;;;;;;;3.75;2.50;;;;;;;14.14;61.63;94134.88;5031573;28;20637;-72
2022/04/22 08:01:13;;;;;;;8.95;3.70;;;;;;;14.39;61.18;94124.41;5031372;28;20219;-75
2022/04/22 08:03:40;;;;;;;4.78;2.78;;;;;;;14.40;61.03;94136.91;5031239;28;20220;-72
2022/04/22 08:06:07;;;;;;;5.03;3.55;;;;;;;15.18;59.19;94149.81;5031696;28;20204;-78
2022/04/22 08:08:34;;;;;;;4.03;2.70;;;;;;;15.47;58.14;94153.72;5031283;28;20205;-79
2022/04/22 08:11:00;;;;;;;5.03;2.88;;;;;;;16.09;57.16;94145.94;5030086;28;20243;-73
2022/04/22 08:13:29;;;;;;;3.92;2.67;;;;;;;16.31;56.79;94145.00;5028887;28;20204;-76
2022/04/22 08:15:56;;;;;;;4.22;2.47;;;;;;;16.60;55.44;94145.25;5029731;28;20204;-74
2022/04/22 08:18:24;;;;;;;4.80;3.13;;;;;;;17.10;54.77;94140.19;5032859;28;20257;-77
2022/04/22 08:20:51;;;;;;;3.17;2.75;;;;;;;17.03;54.05;94143.69;5029922;28;20200;-71
2022/04/22 08:23:21;;;;;;;3.53;3.00;;;;;;;17.09;53.88;94127.69;5029998;28;20635;-72
2022/04/22 08:25:50;;;;;;;5.45;3.67;;;;;;;17.62;53.87;94117.06;5040220;28;20200;-75
2022/04/22 08:28:17;;;;;;;3.40;2.67;;;;;;;17.00;54.42;94126.06;5030648;28;20246;-75
2022/04/22 08:30:46;;;;;;;4.53;2.80;;;;;;;16.73;54.83;94121.97;5035112;28;20920;-71
2022/04/22 08:33:13;;;;;;;4.40;3.28;;;;;;;17.35;55.96;94113.78;5029874;28;20192;-74
2022/04/22 08:35:40;;;;;;;5.55;3.80;;;;;;;17.55;53.21;94115.06;5029675;28;20193;-73
2022/04/22 08:38:08;;;;;;;4.60;3.20;;;;;;;17.68;53.33;94121.00;5030117;28;20691;-77
2022/04/22 08:40:37;;;;;;;5.00;2.75;;;;;;;16.96;54.36;94111.56;5029953;28;20223;-70
2022/04/22 08:43:06;;;;;;;5.00;3.40;;;;;;;16.84;54.68;94117.34;5029559;28;20286;-72
2022/04/22 08:45:34;;;;;;;4.60;3.00;;;;;;;17.08;54.37;94098.78;5029554;28;20196;-74
2022/04/22 08:50:43;;;;;;;6.05;4.13;;;;;;;16.80;54.99;94102.88;5000482;28;20224;-71
2022/04/22 08:53:14;;;;;;;4.47;3.30;;;;;;;17.05;54.44;94086.63;5029322;28;20200;-75
2022/04/22 08:55:43;;;;;;;4.88;2.85;;;;;;;17.28;52.78;94091.84;5025666;28;20219;-75
2022/04/22 08:58:11;;;;;;;5.07;3.10;;;;;;;17.57;52.96;94084.53;5029867;28;20707;-75
2022/04/22 09:00:41;;;;;;;7.38;3.45;;;;;;;17.66;52.35;94088.53;5030242;28;20674;-68
2022/04/22 09:03:10;;;;;;;6.78;2.72;;;;;;;17.67;51.98;94064.66;5030573;28;20629;-73
2022/04/22 09:05:37;;;;;;;4.40;2.53;;;;;;;17.72;51.16;94064.28;5030387;28;20228;-78
2022/04/22 09:08:08;;;;;;;5.90;3.10;;;;;;;18.08;51.27;94062.41;5030381;28;20632;-79
2022/04/22 09:10:36;;;;;;;3.58;2.50;;;;;;;17.71;50.93;94047.06;5030493;28;20243;-76
2022/04/22 09:13:09;;;;;;;6.70;2.83;;;;;;;18.03;50.87;94054.59;5030321;28;20555;-81
2022/04/22 09:15:38;;;;;;;4.90;2.90;;;;;;;17.65;51.90;94056.81;5017942;28;20280;-83
2022/04/22 09:18:15;;;;;;;4.57;2.50;;;;;;;17.56;52.17;94047.38;5030479;28;20258;-75
2022/04/22 09:20:42;;;;;;;5.60;2.58;;;;;;;17.88;51.81;94042.03;5031174;28;20245;-76
2022/04/22 09:23:24;;;;;;;3.28;2.50;;;;;;;17.89;51.83;94049.06;5029529;28;21488;-74
2022/04/22 09:25:51;;;;;;;5.15;2.80;;;;;;;17.80;51.74;94059.59;5025849;28;20204;-74
2022/04/22 09:28:17;;;;;;;3.95;2.78;;;;;;;17.79;52.21;94049.81;5034446;28;20287;-75
2022/04/22 09:30:56;;;;;;;3.88;2.63;;;;;;;18.33;51.10;94052.25;5034555;28;20220;-73
2022/04/22 09:33:25;;;;;;;6.10;2.75;;;;;;;17.51;52.28;94058.69;5021633;28;20203;-73
2022/04/22 09:44:36;;;;;;;7.90;3.35;;;;;;;18.18;52.08;94036.97;4972327;28;20230;-77
2022/04/22 09:47:12;;;;;;;5.45;3.30;;;;;;;18.26;51.58;94029.53;5020347;28;20262;-83
2022/04/22 09:49:43;;;;;;;7.57;3.75;;;;;;;18.46;51.48;94038.94;5033980;28;20203;-74
2022/04/22 09:52:10;;;;;;;5.55;3.53;;;;;;;18.44;50.79;94011.94;5033526;28;20220;-74
2022/04/22 09:54:38;;;;;;;7.30;3.55;;;;;;;18.58;52.04;94030.38;5033853;28;20361;-78
2022/04/22 09:57:06;;;;;;;4.78;3.03;;;;;;;19.08;51.04;94019.31;5033608;28;20215;-77
2022/04/22 09:59:35;;;;;;;5.72;3.47;;;;;;;19.73;49.37;94010.44;5033306;28;20216;-79
2022/04/22 10:02:02;;;;;;;8.45;3.58;;;;;;;19.32;48.67;94001.97;5033466;28;20228;-80
2022/04/22 10:04:31;;;;;;;5.85;3.60;;;;;;;18.91;50.34;94004.44;5032926;28;20678;-81
2022/04/22 10:07:01;;;;;;;6.70;3.15;;;;;;;19.17;49.71;93990.25;5049030;28;20207;-82
2022/04/22 10:09:29;;;;;;;5.30;2.45;;;;;;;19.02;47.54;93988.72;5054085;28;20286;-80
2022/04/22 10:11:59;;;;;;;3.67;2.67;;;;;;;18.56;48.95;93999.78;5037119;28;20224;-79
2022/04/22 10:14:36;;;;;;;5.00;2.90;;;;;;;18.73;49.08;93987.22;5033466;28;20205;-77
2022/04/22 10:17:04;;;;;;;4.13;2.90;;;;;;;19.27;47.76;93976.91;5033174;28;20189;-82
2022/04/22 10:19:33;;;;;;;5.53;3.08;;;;;;;18.92;48.06;93978.56;5032826;28;20660;-74
2022/04/22 10:22:03;;;;;;;4.38;2.78;;;;;;;19.85;46.75;93957.75;5033703;28;20200;-78
2022/04/22 10:24:31;;;;;;;4.85;3.10;;;;;;;19.81;46.41;93956.22;5033841;28;20211;-85
2022/04/22 10:26:59;;;;;;;8.25;3.47;;;;;;;19.41;47.63;93960.31;5034370;28;20254;-80
2022/04/22 10:29:29;;;;;;;3.08;2.70;;;;;;;19.41;47.93;93939.13;5033530;28;20311;-73
2022/04/22 10:31:57;;;;;;;7.47;3.05;;;;;;;19.13;48.52;93933.78;5042693;28;20242;-74
2022/04/22 10:34:38;;;;;;;4.88;2.90;;;;;;;19.66;48.60;93928.06;5038799;28;20240;-86
2022/04/22 10:37:06;;;;;;;3.83;2.85;;;;;;;19.84;48.02;93925.94;5032806;28;20634;-79
2022/04/22 10:39:34;;;;;;;5.05;2.95;;;;;;;19.91;47.53;93938.09;5033357;28;20204;-87
2022/04/22 10:42:01;;;;;;;4.65;2.75;;;;;;;19.30;48.23;93937.63;5034294;28;20243;-83
2022/04/22 10:47:16;;;;;;;6.03;3.13;;;;;;;19.30;48.69;93935.66;5033862;28;20286;-85
2022/04/22 10:49:44;;;;;;;7.20;3.13;;;;;;;18.83;49.83;93930.75;5033808;28;20208;-86
2022/04/22 10:52:14;;;;;;;4.72;2.80;;;;;;;18.56;50.23;93938.63;5034106;28;20239;-78
2022/04/22 10:55:12;;;;;;;4.68;2.72;;;;;;;19.21;49.23;93929.81;5032648;28;20590;-80
2022/04/22 10:57:42;;;;;;;6.72;2.88;;;;;;;19.33;48.38;93942.31;5033280;28;20216;-74
2022/04/22 11:00:28;;;;;;;6.05;3.35;;;;;;;19.41;48.73;93944.63;5032905;28;20209;-79
2022/04/22 11:03:04;;;;;;;7.80;3.22;;;;;;;19.46;48.38;93935.19;5012747;28;20232;-75
2022/04/22 11:05:39;;;;;;;5.65;3.45;;;;;;;19.44;48.82;93915.56;5029824;28;20204;-74
2022/04/22 11:08:16;;;;;;;5.10;3.03;;;;;;;19.34;47.90;93921.91;5032894;28;20223;-78
2022/04/22 11:11:10;;;;;;;3.20;2.28;;;;;;;19.27;48.57;93916.47;5031969;28;20239;-73
2022/04/22 11:13:41;;;;;;;5.88;2.85;;;;;;;20.10;48.02;93915.53;5031829;28;20215;-77
2022/04/22 11:16:12;;;;;;;3.83;2.60;;;;;;;20.06;46.46;93907.34;5031671;28;20617;-76
2022/04/22 11:18:41;;;;;;;7.28;2.88;;;;;;;20.21;45.63;93897.00;5032364;28;20200;-77
2022/04/22 11:21:13;;;;;;;4.47;3.10;;;;;;;20.30;45.78;93891.81;5031996;28;20204;-74
2022/04/22 11:23:44;;;;;;;3.72;2.90;;;;;;;20.63;46.34;93911.56;5032227;28;20286;-77
2022/04/22 11:26:14;;;;;;;6.47;3.58;;;;;;;20.86;45.23;93904.22;5032060;28;20283;-74
2022/04/22 11:28:42;;;;;;;5.00;2.40;;;;;;;20.75;45.03;93905.53;5019309;28;20266;-78
2022/04/22 11:31:11;;;;;;;6.63;2.78;;;;;;;20.26;45.35;93921.31;5032612;28;20196;-78
2022/04/22 11:33:58;;;;;;;2.80;2.45;;;;;;;20.84;45.26;93895.59;5032760;28;20207;-76
2022/04/22 11:36:26;;;;;;;6.25;2.72;;;;;;;21.35;44.31;93885.53;5031845;28;20200;-75
2022/04/22 11:38:55;;;;;;;3.03;2.70;;;;;;;21.62;43.52;93874.53;5031501;28;20262;-76
2022/04/22 11:41:23;;;;;;;5.35;2.40;;;;;;;21.58;42.74;93876.59;5031585;28;20679;-77
2022/04/22 11:43:50;;;;;;;4.43;2.85;;;;;;;21.55;43.68;93872.69;5031679;28;20699;-76
2022/04/22 11:46:19;;;;;;;3.03;2.65;;;;;;;22.14;42.42;93857.63;5032071;28;20213;-76
2022/04/22 11:48:47;;;;;;;5.10;2.60;;;;;;;21.42;42.62;93857.13;5031984;28;20197;-76
2022/04/22 11:51:16;;;;;;;5.03;2.50;;;;;;;20.82;43.51;93858.66;5026903;28;20200;-76
2022/04/22 11:53:48;;;;;;;4.18;2.58;;;;;;;20.74;44.65;93851.69;5023330;28;20230;-75
2022/04/22 11:56:23;;;;;;;4.82;2.80;;;;;;;21.12;44.88;93839.38;5031099;28;20204;-77
2022/04/22 11:58:54;;;;;;;5.32;2.88;;;;;;;21.03;44.13;93854.88;5031235;28;20207;-76
2022/04/22 12:06:59;;;;;;;3.85;2.67;;;;;;;21.53;43.74;93833.72;5029041;28;20246;-78
2022/04/22 12:09:26;;;;;;;6.25;3.03;;;;;;;21.19;43.80;93839.31;5031252;28;20208;-88
2022/04/22 12:12:00;;;;;;;5.55;2.60;;;;;;;21.60;43.17;93846.59;5030428;28;20274;-77
2022/04/22 12:14:28;;;;;;;6.63;2.85;;;;;;;22.26;42.16;93826.66;5031025;28;20207;-73
2022/04/22 12:16:57;;;;;;;3.53;2.47;;;;;;;22.34;41.34;93834.38;5031271;28;20200;-72
2022/04/22 12:19:24;;;;;;;3.70;2.40;;;;;;;22.12;42.08;93829.66;5031189;28;20239;-75
2022/04/22 12:21:51;;;;;;;4.38;2.70;;;;;;;21.94;42.27;93821.66;5044009;28;20274;-79
2022/04/22 12:24:19;;;;;;;8.15;3.03;;;;;;;21.90;41.95;93816.19;5025130;28;20569;-75
2022/04/22 12:26:45;;;;;;;5.93;3.50;;;;;;;22.01;41.73;93815.25;5029967;28;20219;-72
2022/04/22 12:29:15;;;;;;;6.35;2.95;;;;;;;22.53;41.71;93799.72;5031108;28;20319;-74
2022/04/22 12:31:43;;;;;;;4.47;2.55;;;;;;;22.83;41.96;93781.38;5030998;28;20208;-77
2022/04/22 12:34:11;;;;;;;4.72;2.92;;;;;;;23.00;41.68;93785.75;5031377;28;20204;-75
2022/04/22 12:36:40;;;;;;;4.18;2.58;;;;;;;22.55;40.70;93789.00;5037912;28;20294;-70
2022/04/22 12:39:09;;;;;;;4.07;2.60;;;;;;;22.32;41.85;93789.84;5036805;28;20207;-77
2022/04/22 12:41:53;;;;;;;6.25;3.20;;;;;;;22.05;42.28;93793.91;5030916;28;20323;-77
2022/04/22 12:44:22;;;;;;;5.30;2.80;;;;;;;22.01;42.16;93784.91;5029361;28;20715;-76
2022/04/22 12:52:22;;;;;;;5.60;2.60;;;;;;;22.13;42.82;93778.81;5028738;28;20227;-80
2022/04/22 12:54:50;;;;;;;3.47;2.95;;;;;;;22.30;43.25;93766.63;5026486;28;20188;-76
2022/04/22 12:57:23;;;;;;;9.52;2.80;;;;;;;21.89;42.40;93764.22;5029913;28;20210;-74